• Join FlightAware (Why Join?)
  • Login
  • US Flag 
07:17PM EDT


 

Airport Tracker/Info


-or-


 

Live Flight TrackerFlight Track Log ✈ AWE3417 ✈ 15-Apr-2013 ✈ KMHT - KDCA

Flight Track Log - Related Links

Times and Time Zones

All times are in EDT time to prevent confusion due to time zone crossing. See the AWE3417 flight status page for this flight to view local times or setup timezone preferences in your user account.

Time Position Orientation Groundspeed Altitude Reporting Facility
EDT Latitude Longitude Course Direction KTS MPH feet Rate Location/Type
05:13PM 42.9167 -71.4500 202° Southwest 156 180 1,200  Level KA90
05:13PM 42.9167 -71.4667 270° West 151 174 2,200 2,040 Climbing KA90
05:14PM 42.9167 -71.5500 270° West 223 257 4,100 2,280 Climbing KA90
05:15PM 43.0532 -71.0905 65° Northeast  Level FlightAware Approximate
05:15PM 42.9761 -71.5122 25° Northeast 288 331 7,300  Level Boston Center
05:16PM 43.0745 -70.9701 132° Southeast  Level FlightAware Approximate
05:16PM 42.9939 -71.4211 75° East 293 337 9,800  Level Boston Center
05:17PM 43.0010 -70.8843 144° Southeast  Level FlightAware Approximate
05:17PM 43.0158 -71.3183 74° East 299 344 11,800  Level Boston Center
05:18PM 42.9137 -70.9054 202° Southwest  Level FlightAware Approximate
05:18PM 43.0478 -71.1700 74° East 326 375 14,300  Level Boston Center
05:19PM 43.0733 -71.0531 73° East 343 395 16,600 1,860 Climbing Boston Center
05:20PM 43.0258 -70.9236 117° Southeast 337 388 18,100 1,500 Climbing Boston Center
05:21PM 42.9319 -70.9003 170° South 297 342 19,700 1,560 Climbing Boston Center
05:22PM 42.8347 -70.9536 202° Southwest 311 358 21,300 1,620 Climbing Boston Center
05:23PM 42.7372 -71.0042 201° Southwest 337 388 23,000 1,680 Climbing Boston Center
05:24PM 42.6358 -71.0544 200° South 370 426 24,700 1,500 Climbing Boston Center
05:25PM 42.5342 -71.1044 200° South 386 444 26,100 1,320 Climbing Boston Center
05:26PM 42.4475 -71.1656 207° Southwest 399 459 27,400 960 Climbing Boston Center
05:27PM 42.3967 -71.2875 241° Southwest 367 422 28,000 600 Climbing Boston Center
05:28PM 42.3542 -71.4175 246° West 372 428 28,600 720 Climbing Boston Center
05:29PM 42.2989 -71.5558 242° Southwest 378 435 29,500 660 Climbing Boston Center
05:30PM 42.2644 -71.6856 250° West 386 444 30,000 240 Climbing Boston Center
05:31PM 42.2172 -71.7925 239° Southwest 403 464 30,000  Level Boston Center
05:32PM 42.0992 -71.9056 215° Southwest 421 484 30,000  Level Boston Center
05:33PM 41.9994 -72.0014 216° Southwest 433 498 30,000  Level Boston Center
05:34PM 41.9603 -72.1386 249° West 409 471 30,000 -360 Level Boston Center
05:35PM 41.9564 -72.2922 268° West 397 457 29,300 -1,020 Descending Boston Center
05:36PM 41.9522 -72.4428 268° West 397 457 28,000 -660 Descending Boston Center
05:37PM 41.9439 -72.5964 266° West 408 470 28,000  Level Boston Center
05:38PM 41.9103 -72.7358 252° West 408 470 28,000  Level Boston Center
05:39PM 41.8267 -72.8469 225° Southwest 395 455 28,000  Level Boston Center
05:40PM 41.7386 -72.9686 226° Southwest 427 491 28,000  Level Boston Center
05:41PM 41.6525 -73.0847 225° Southwest 442 509 28,000  Level Boston Center
05:43PM 41.4669 -73.3350 225° Southwest 448 516 28,000  Level New York Center
05:44PM 41.3811 -73.4533 226° Southwest 448 516 28,000  Level New York Center
05:45PM 41.2908 -73.5683 224° Southwest 448 516 28,000  Level New York Center
05:46PM 41.2169 -73.6975 233° Southwest 448 516 28,000  Level New York Center
05:47PM 41.1408 -73.8239 231° Southwest 448 516 28,000  Level New York Center
05:48PM 41.0667 -73.9497 232° Southwest 443 510 28,000  Level New York Center
05:49PM 40.9903 -74.0753 231° Southwest 443 510 28,000  Level New York Center
05:50PM 40.9075 -74.2086 231° Southwest 437 503 28,000  Level New York Center
05:51PM 40.8331 -74.3283 231° Southwest 437 503 28,000  Level New York Center
05:52PM 40.7583 -74.4531 232° Southwest 437 503 28,000 -60 Level New York Center
05:53PM 40.6814 -74.5775 231° Southwest 437 503 27,900 -720 Descending New York Center
05:54PM 40.6064 -74.7044 232° Southwest 432 497 26,600 -1,440 Descending New York Center
05:55PM 40.5297 -74.8203 229° Southwest 432 497 25,100 -1,560 Descending New York Center
05:56PM 40.4531 -74.9275 227° Southwest 426 490 23,600 -1,440 Descending New York Center
05:57PM 40.3761 -75.0347 227° Southwest 416 479 22,200 -1,440 Descending New York Center
05:58PM 40.3036 -75.1392 228° Southwest 406 467 20,700 -1,140 Descending New York Center
05:59PM 40.2311 -75.2406 227° Southwest 395 455 20,000 -360 Descending New York Center
06:00PM 40.1603 -75.3447 228° Southwest 395 455 20,000 -360 Level New York Center
06:01PM 40.0833 -75.4481 226° Southwest 395 455 19,300 -540 Descending New York Center
06:02PM 40.0106 -75.5461 226° Southwest 390 449 19,000 -180 Descending New York Center
06:03PM 39.9422 -75.6364 225° Southwest 385 443 19,000  Level New York Center
06:04PM 39.8792 -75.7483 234° Southwest 363 418 19,000  Level New York Center
06:05PM 39.8339 -75.8317 235° Southwest 334 384 19,000 -300 Level New York Center
06:06PM 39.7772 -75.9356 235° Southwest 321 369 18,400 -840 Descending New York Center
06:07PM 39.7292 -76.0319 237° Southwest 321 369 17,400 -1,200 Descending New York Center
06:08PM 39.6814 -76.1228 236° Southwest 316 364 16,100 -1,380 Descending New York Center
06:10PM 39.6167 -76.3000 245° Southwest 290 334 13,600 -1,380 Descending Potomac TRACON
06:11PM 39.6000 -76.3833 255° West 290 334 12,400 -840 Descending Potomac TRACON
06:12PM 39.5333 -76.4667 224° Southwest 289 333 12,000 -240 Descending Potomac TRACON
06:13PM 39.4667 -76.5000 201° Southwest 289 333 12,000  Level Potomac TRACON
06:14PM 39.3833 -76.5333 197° South 292 336 12,000  Level Potomac TRACON
06:15PM 39.3167 -76.5833 210° Southwest 288 331 12,000 -420 Level Potomac TRACON
06:16PM 39.2333 -76.6167 197° South 288 331 11,200 -1,020 Descending Potomac TRACON
06:17PM 39.1667 -76.6667 210° Southwest 280 322 10,000 -600 Descending Potomac TRACON
06:18PM 39.1167 -76.7333 226° Southwest 279 321 10,000 -60 Level Potomac TRACON
06:19PM 39.0500 -76.8000 218° Southwest 275 316 9,900 -480 Descending Potomac TRACON
06:20PM 39.0000 -76.8667 226° Southwest 263 303 9,100 -780 Descending Potomac TRACON
06:21PM 38.9667 -76.9333 237° Southwest 206 237 8,500 -1,020 Descending Potomac TRACON
06:22PM 38.9667 -77.0000 270° West 197 227 7,100 -1,200 Descending Potomac TRACON
06:23PM 39.0000 -77.0667 303° West 225 259 6,000 -900 Descending Potomac TRACON
06:24PM 39.0500 -77.1167 322° Northwest 219 252 5,400 -720 Descending Potomac TRACON
06:25PM 39.0833 -77.1667 311° West 202 232 4,700 -1,020 Descending Potomac TRACON
06:26PM 39.0833 -77.2167 270° West 167 192 3,400 -900 Descending Potomac TRACON
06:27PM 39.0500 -77.2167 180° South 154 177 3,000 -240 Descending Potomac TRACON
06:28PM 39.0000 -77.1833 153° Southeast 159 183 3,000 -120 Level Potomac TRACON
06:29PM 38.9667 -77.1667 159° South 157 181 2,800 -240 Descending Potomac TRACON